createdAt,value
2023-04-26T00:00:10.228Z,10.50
2023-04-26T00:02:38.697Z,12.25
2023-04-26T00:05:09.585Z,11.50
2023-04-26T00:07:39.247Z,12.25
2023-04-26T00:10:07.782Z,8.50
2023-04-26T00:12:36.521Z,12.75
2023-04-26T00:15:04.699Z,14.50
2023-04-26T00:17:34.332Z,15.00
2023-04-26T00:20:02.584Z,14.50
2023-04-26T00:22:31.534Z,12.00
2023-04-26T00:25:00.020Z,11.25
2023-04-26T00:27:28.044Z,15.25
2023-04-26T00:29:56.629Z,6.75
2023-04-26T00:32:24.916Z,14.50
2023-04-26T00:34:54.531Z,12.50
2023-04-26T00:37:23.449Z,10.25
2023-04-26T00:39:51.547Z,15.50
2023-04-26T00:42:20.943Z,8.50
2023-04-26T00:44:50.450Z,14.25
2023-04-26T00:47:18.679Z,12.75
2023-04-26T00:49:46.916Z,13.00
2023-04-26T00:52:16.613Z,10.75
2023-04-26T00:54:45.009Z,13.25
2023-04-26T00:57:13.639Z,14.25
2023-04-26T00:59:41.842Z,11.00
2023-04-26T01:02:10.029Z,11.75
2023-04-26T01:04:40.834Z,14.50
2023-04-26T01:07:09.180Z,13.50
2023-04-26T01:09:38.646Z,14.75
2023-04-26T01:12:07.576Z,10.75
2023-04-26T01:14:36.825Z,15.25
2023-04-26T01:17:05.759Z,18.50
2023-04-26T01:19:34.041Z,10.75
2023-04-26T01:22:02.034Z,15.25
2023-04-26T01:24:31.673Z,18.00
2023-04-26T01:26:59.776Z,9.25
2023-04-26T01:29:28.073Z,10.25
2023-04-26T01:31:56.146Z,13.00
2023-04-26T01:34:24.270Z,17.25
2023-04-26T01:36:52.526Z,11.25
2023-04-26T01:39:21.787Z,4.25
2023-04-26T01:41:52.934Z,14.00
2023-04-26T01:44:21.175Z,11.75
2023-04-26T01:46:49.326Z,12.00
2023-04-26T01:49:17.418Z,14.75
2023-04-26T01:51:45.489Z,13.75
2023-04-26T01:54:13.572Z,15.00
2023-04-26T01:56:58.921Z,11.00
2023-04-26T01:59:30.329Z,11.50
2023-04-26T02:02:00.161Z,10.50
2023-04-26T02:04:28.873Z,6.00
2023-04-26T02:06:57.407Z,10.75
2023-04-26T02:09:25.622Z,9.75
2023-04-26T02:11:54.700Z,10.00
2023-04-26T02:14:42.673Z,10.50
2023-04-26T02:17:31.894Z,8.75
2023-04-26T02:20:00.194Z,4.50
2023-04-26T02:22:28.284Z,9.75
2023-04-26T02:24:56.515Z,8.50
2023-04-26T02:27:29.054Z,14.50
2023-04-26T02:29:58.491Z,9.50
2023-04-26T02:32:26.640Z,12.25
2023-04-26T02:34:54.806Z,10.75
2023-04-26T02:37:23.004Z,6.00
2023-04-26T02:39:51.415Z,10.75
2023-04-26T02:42:19.875Z,7.25
2023-04-26T02:44:48.622Z,5.00
2023-04-26T02:47:18.121Z,11.00
2023-04-26T02:49:46.813Z,10.00
2023-04-26T02:52:14.895Z,10.00
2023-04-26T02:54:42.967Z,10.00
2023-04-26T02:57:11.937Z,3.00
2023-04-26T02:59:39.974Z,6.75
2023-04-26T03:02:08.694Z,7.75
2023-04-26T03:04:38.474Z,9.50
2023-04-26T03:07:06.761Z,7.00
2023-04-26T03:09:38.265Z,10.75
2023-04-26T03:12:07.347Z,11.50
2023-04-26T03:14:35.784Z,11.75
2023-04-26T03:17:03.995Z,10.75
2023-04-26T03:19:33.734Z,9.00
2023-04-26T03:22:05.373Z,8.25
2023-04-26T03:24:33.992Z,10.00
2023-04-26T03:27:02.245Z,8.75
2023-04-26T03:29:30.294Z,10.50
2023-04-26T03:31:58.440Z,8.00
2023-04-26T03:34:27.520Z,9.25
2023-04-26T03:36:56.143Z,9.50
2023-04-26T03:39:25.774Z,10.50
2023-04-26T03:41:54.240Z,13.50
2023-04-26T03:44:22.383Z,7.75
2023-04-26T03:46:50.802Z,6.75
2023-04-26T03:49:19.161Z,7.75
2023-04-26T03:51:47.344Z,10.75
2023-04-26T03:54:17.234Z,11.00
2023-04-26T03:56:46.836Z,5.25
2023-04-26T03:59:15.120Z,13.00
2023-04-26T04:01:44.147Z,10.75
2023-04-26T04:04:12.361Z,11.50
2023-04-26T04:06:41.662Z,10.75
2023-04-26T04:09:09.776Z,11.25
2023-04-26T04:11:37.846Z,11.00
2023-04-26T04:14:07.515Z,10.25
2023-04-26T04:16:35.750Z,12.75
2023-04-26T04:19:05.292Z,7.50
2023-04-26T04:21:33.841Z,8.00
2023-04-26T04:24:01.986Z,11.75
2023-04-26T04:26:30.556Z,9.25
2023-04-26T04:29:00.709Z,10.75
2023-04-26T04:31:30.269Z,12.50
2023-04-26T04:33:58.372Z,9.00
2023-04-26T04:36:26.986Z,10.25
2023-04-26T04:38:55.154Z,10.50
2023-04-26T04:41:24.311Z,7.50
2023-04-26T04:43:53.839Z,12.50
2023-04-26T04:46:22.417Z,11.25
2023-04-26T04:48:52.310Z,3.75
2023-04-26T04:51:22.035Z,6.00
2023-04-26T04:53:50.109Z,15.50
2023-04-26T04:56:19.663Z,12.00
2023-04-26T04:58:48.168Z,12.50
2023-04-26T05:01:19.477Z,10.75
2023-04-26T05:03:53.563Z,10.00
2023-04-26T05:06:22.636Z,12.50
2023-04-26T05:08:50.843Z,12.50
2023-04-26T05:11:19.479Z,9.50
2023-04-26T05:13:48.060Z,2.00
2023-04-26T05:16:17.002Z,9.75
2023-04-26T05:18:45.404Z,4.75
2023-04-26T05:21:14.846Z,9.00
2023-04-26T05:23:43.381Z,11.50
2023-04-26T05:26:15.798Z,6.00
2023-04-26T05:28:53.997Z,8.25
2023-04-26T05:31:45.615Z,8.50
2023-04-26T05:34:32.432Z,8.75
2023-04-26T05:37:02.191Z,8.00
2023-04-26T05:39:30.752Z,8.50
2023-04-26T05:41:59.058Z,7.50
2023-04-26T05:44:27.171Z,11.00
2023-04-26T05:46:55.667Z,12.00
2023-04-26T05:49:23.752Z,13.25
2023-04-26T05:51:52.187Z,10.50
2023-04-26T05:54:22.249Z,7.50
2023-04-26T05:56:50.592Z,9.00
2023-04-26T05:59:18.881Z,11.25
2023-04-26T06:01:47.170Z,8.50
2023-04-26T06:04:15.480Z,8.75
2023-04-26T06:06:57.178Z,9.75
2023-04-26T06:09:27.409Z,10.75
2023-04-26T06:11:56.235Z,12.00
2023-04-26T06:16:58.376Z,2.00
2023-04-26T06:19:26.689Z,8.00
2023-04-26T06:21:57.362Z,8.00
2023-04-26T06:24:27.518Z,10.00
2023-04-26T06:26:55.896Z,8.00
2023-04-26T06:29:24.020Z,7.50
2023-04-26T06:31:52.270Z,9.50
2023-04-26T06:34:22.466Z,6.25
2023-04-26T06:36:50.839Z,8.25
2023-04-26T06:39:21.349Z,7.00
2023-04-26T06:41:52.515Z,6.75
2023-04-26T06:44:28.764Z,4.50
2023-04-26T06:47:03.495Z,5.00
2023-04-26T06:49:34.384Z,7.00
2023-04-26T06:52:03.063Z,7.50
2023-04-26T06:54:31.758Z,5.50
2023-04-26T06:57:01.772Z,6.75
2023-04-26T06:59:29.979Z,3.75
2023-04-26T07:01:59.081Z,7.75
2023-04-26T07:04:27.526Z,6.50
2023-04-26T07:06:56.054Z,6.50
2023-04-26T07:09:24.346Z,7.75
2023-04-26T07:11:52.625Z,6.00
2023-04-26T07:14:22.692Z,7.50
2023-04-26T07:16:50.850Z,7.75
2023-04-26T07:19:19.885Z,3.00
2023-04-26T07:21:48.077Z,3.00
2023-04-26T07:24:16.200Z,7.00
2023-04-26T07:26:44.300Z,6.25
2023-04-26T07:29:12.410Z,3.00
2023-04-26T07:31:41.908Z,8.75
2023-04-26T07:34:09.972Z,3.00
2023-04-26T07:36:38.120Z,2.75
2023-04-26T07:39:09.764Z,2.00
2023-04-26T07:41:38.106Z,5.25
2023-04-26T07:44:09.662Z,7.50
2023-04-26T07:46:37.776Z,9.50
2023-04-26T07:49:07.472Z,3.75
2023-04-26T07:51:40.096Z,3.00
2023-04-26T07:54:08.252Z,4.50
2023-04-26T07:56:36.332Z,5.00
2023-04-26T07:59:05.147Z,7.00
2023-04-26T08:01:33.756Z,6.50
2023-04-26T08:04:02.683Z,2.50
2023-04-26T08:06:33.558Z,2.50
2023-04-26T08:09:01.729Z,5.75
2023-04-26T08:11:29.985Z,5.25
2023-04-26T08:13:58.591Z,5.75
2023-04-26T08:16:26.764Z,4.50
2023-04-26T08:18:55.033Z,2.25
2023-04-26T08:21:23.913Z,7.00
2023-04-26T08:23:53.713Z,6.00
2023-04-26T08:26:22.114Z,6.75
2023-04-26T08:28:50.176Z,7.00
2023-04-26T08:31:18.494Z,3.00
2023-04-26T08:33:47.243Z,5.50
2023-04-26T08:36:15.508Z,7.50
2023-04-26T08:38:43.816Z,3.00
2023-04-26T08:41:15.075Z,3.00
2023-04-26T08:43:44.021Z,3.00
2023-04-26T08:46:14.120Z,3.00
2023-04-26T08:48:42.246Z,6.00
2023-04-26T08:51:11.677Z,7.00
2023-04-26T08:53:40.257Z,4.00
2023-04-26T08:56:10.014Z,6.00
2023-04-26T08:58:40.810Z,3.25
2023-04-26T09:01:10.587Z,2.00
2023-04-26T09:03:40.035Z,6.00
2023-04-26T09:06:08.567Z,6.75
2023-04-26T09:08:37.906Z,5.50
2023-04-26T09:11:11.483Z,6.50
2023-04-26T09:13:41.616Z,3.00
2023-04-26T09:16:10.849Z,4.50
2023-04-26T09:18:48.819Z,3.00
2023-04-26T09:21:19.320Z,5.50
2023-04-26T09:24:00.140Z,2.00
2023-04-26T09:26:29.921Z,5.00
2023-04-26T09:29:15.865Z,2.00
2023-04-26T09:31:48.695Z,3.50
2023-04-26T09:34:18.980Z,2.00
2023-04-26T09:36:51.112Z,2.50
2023-04-26T09:39:33.178Z,5.25
2023-04-26T09:42:02.214Z,2.50
2023-04-26T09:44:32.653Z,5.25
2023-04-26T09:47:02.371Z,2.50
2023-04-26T09:49:33.402Z,2.00
2023-04-26T09:52:02.453Z,2.50
2023-04-26T09:54:41.185Z,3.75
2023-04-26T09:57:09.622Z,3.50
2023-04-26T09:59:43.448Z,1.33
2023-04-26T10:02:16.073Z,3.50
2023-04-26T10:04:49.547Z,2.00
2023-04-26T10:07:19.088Z,2.25
2023-04-26T10:09:48.733Z,2.00
2023-04-26T10:12:17.930Z,4.50
2023-04-26T10:14:47.940Z,4.00
2023-04-26T10:17:16.552Z,2.50
2023-04-26T10:19:45.356Z,1.00
2023-04-26T10:22:16.524Z,3.50
2023-04-26T10:24:45.352Z,2.25
2023-04-26T10:27:13.592Z,4.75
2023-04-26T10:29:59.959Z,4.00
2023-04-26T10:32:29.579Z,3.75
2023-04-26T10:35:10.998Z,4.50
2023-04-26T10:37:39.247Z,1.00
2023-04-26T10:40:22.263Z,1.75
2023-04-26T10:42:50.427Z,2.50
2023-04-26T10:45:28.487Z,2.00
2023-04-26T10:48:11.413Z,2.50
2023-04-26T10:51:05.635Z,2.00
2023-04-26T10:53:34.697Z,2.25
2023-04-26T10:56:02.933Z,1.50
2023-04-26T10:58:31.412Z,1.25
2023-04-26T11:01:06.485Z,1.25
2023-04-26T11:03:34.966Z,2.50
2023-04-26T11:06:09.903Z,3.00
2023-04-26T11:08:38.015Z,2.00
2023-04-26T11:11:11.313Z,2.25
2023-04-26T11:13:40.494Z,0.00
2023-04-26T11:16:09.683Z,2.00
2023-04-26T11:18:38.937Z,2.00
2023-04-26T11:21:08.567Z,2.00
2023-04-26T11:23:36.863Z,1.25
2023-04-26T11:26:05.648Z,3.00
2023-04-26T11:28:34.766Z,4.00
2023-04-26T11:31:03.147Z,1.75
2023-04-26T11:33:31.506Z,3.25
2023-04-26T11:36:00.230Z,3.00
2023-04-26T11:38:30.267Z,4.50
2023-04-26T11:40:59.035Z,5.50
2023-04-26T11:43:36.977Z,5.00
2023-04-26T11:46:06.016Z,4.00
2023-04-26T11:48:35.715Z,6.25
2023-04-26T11:51:04.610Z,1.75
2023-04-26T11:53:41.096Z,7.00
2023-04-26T11:56:16.664Z,5.75
2023-04-26T11:58:49.187Z,4.50
2023-04-26T12:01:24.455Z,5.00
2023-04-26T12:03:53.909Z,2.00
2023-04-26T12:06:30.311Z,2.00
2023-04-26T12:08:59.838Z,3.50
2023-04-26T12:11:28.418Z,5.50
2023-04-26T12:13:59.487Z,2.25
2023-04-26T12:16:27.909Z,3.00
2023-04-26T12:18:57.980Z,1.00
2023-04-26T12:21:30.421Z,3.25
2023-04-26T12:24:00.436Z,2.00
2023-04-26T12:26:45.585Z,3.25
2023-04-26T12:29:13.876Z,3.50
2023-04-26T12:31:42.328Z,3.75
2023-04-26T12:34:10.479Z,7.00
2023-04-26T12:36:38.596Z,3.00
2023-04-26T12:39:08.281Z,4.00
2023-04-26T12:41:36.594Z,3.00
2023-04-26T12:44:04.823Z,3.00
2023-04-26T12:46:32.999Z,2.00
2023-04-26T12:49:01.121Z,2.00
2023-04-26T12:51:30.298Z,2.00
2023-04-26T12:53:58.654Z,2.00
2023-04-26T12:56:28.203Z,2.00
2023-04-26T12:58:56.341Z,0.75
2023-04-26T13:01:24.473Z,1.00
2023-04-26T13:03:52.723Z,0.00
2023-04-26T13:06:21.129Z,2.00
2023-04-26T13:08:49.222Z,1.00
2023-04-26T13:11:18.197Z,1.00
2023-04-26T13:13:47.820Z,1.75
2023-04-26T13:16:16.698Z,1.00
2023-04-26T13:18:44.961Z,2.00
2023-04-26T13:21:13.449Z,2.25
2023-04-26T13:23:41.547Z,1.00
2023-04-26T13:26:10.486Z,6.50
2023-04-26T13:28:38.710Z,3.00
2023-04-26T13:31:10.320Z,1.00
2023-04-26T13:33:38.595Z,1.50
2023-04-26T13:36:07.502Z,1.00
2023-04-26T13:38:35.732Z,1.00
2023-04-26T13:41:05.259Z,1.00
2023-04-26T13:43:34.415Z,1.00
2023-04-26T13:46:02.718Z,2.00
2023-04-26T13:48:36.040Z,0.75
2023-04-26T13:51:06.635Z,0.00
2023-04-26T13:53:36.663Z,1.00
2023-04-26T13:56:04.877Z,1.00
2023-04-26T13:58:32.971Z,1.00
2023-04-26T14:01:01.798Z,2.00
2023-04-26T14:03:30.226Z,0.00
2023-04-26T14:05:59.858Z,1.75
2023-04-26T14:08:27.996Z,1.00
2023-04-26T14:10:56.203Z,3.75
2023-04-26T14:13:24.308Z,2.00
2023-04-26T14:15:52.502Z,2.25
2023-04-26T14:18:22.323Z,0.00
2023-04-26T14:20:51.299Z,1.75
2023-04-26T14:23:23.840Z,4.00
2023-04-26T14:25:53.593Z,4.00
2023-04-26T14:28:21.794Z,2.00
2023-04-26T14:30:49.990Z,2.00
2023-04-26T14:33:18.402Z,3.75
2023-04-26T14:35:46.528Z,2.25
2023-04-26T14:38:22.779Z,4.25
2023-04-26T14:40:52.410Z,1.00
2023-04-26T14:43:20.848Z,3.75
2023-04-26T14:45:48.949Z,3.50
2023-04-26T14:48:17.300Z,3.00
2023-04-26T14:50:45.556Z,4.00
2023-04-26T14:53:13.747Z,4.50
2023-04-26T14:55:41.955Z,4.50
2023-04-26T14:58:11.659Z,1.00
2023-04-26T15:00:40.034Z,3.75
2023-04-26T15:03:08.267Z,4.00
2023-04-26T15:05:36.515Z,3.75
2023-04-26T15:08:05.143Z,3.00
2023-04-26T15:10:33.314Z,6.00
2023-04-26T15:13:01.531Z,6.00
2023-04-26T15:15:31.269Z,4.50
2023-04-26T15:18:02.278Z,3.00
2023-04-26T15:20:30.430Z,13.00
2023-04-26T15:22:58.687Z,2.00
2023-04-26T15:25:26.979Z,5.25
2023-04-26T15:27:55.126Z,4.25
2023-04-26T15:30:23.352Z,5.50
2023-04-26T15:32:53.042Z,3.75
2023-04-26T15:35:21.150Z,2.50
2023-04-26T15:37:49.288Z,2.00
2023-04-26T15:40:17.613Z,6.25
2023-04-26T15:42:45.837Z,8.25
2023-04-26T15:45:14.209Z,7.00
2023-04-26T15:47:42.530Z,8.25
2023-04-26T15:50:12.468Z,6.25
2023-04-26T15:52:40.898Z,4.00
2023-04-26T15:55:09.584Z,6.00
2023-04-26T15:57:37.946Z,5.50
2023-04-26T16:00:08.609Z,7.75
2023-04-26T16:02:37.357Z,3.00
2023-04-26T16:05:08.354Z,7.75
2023-04-26T16:07:39.303Z,6.00
2023-04-26T16:10:08.498Z,9.00
2023-04-26T16:12:39.656Z,6.00
2023-04-26T16:15:09.556Z,8.25
2023-04-26T16:17:38.660Z,6.00
2023-04-26T16:20:08.382Z,9.25
2023-04-26T16:22:38.126Z,10.25
2023-04-26T16:25:07.159Z,7.50
2023-04-26T16:27:35.530Z,16.50
2023-04-26T16:30:04.159Z,21.25
2023-04-26T16:32:32.604Z,25.00
2023-04-26T16:35:00.947Z,26.25
2023-04-26T16:37:29.264Z,29.50
2023-04-26T16:39:58.726Z,32.75
2023-04-26T16:42:26.903Z,32.75
2023-04-26T16:44:55.967Z,33.00
2023-04-26T16:47:24.072Z,30.60
2023-04-26T16:49:53.267Z,33.00
2023-04-26T16:52:21.500Z,38.00
2023-04-26T16:54:49.647Z,37.40
2023-04-26T16:57:19.230Z,29.25
2023-04-26T16:59:47.380Z,32.20
2023-04-26T17:02:15.817Z,37.40
2023-04-26T17:04:44.491Z,35.80
2023-04-26T17:07:13.054Z,28.00
2023-04-26T17:09:41.247Z,30.00
2023-04-26T17:12:09.444Z,34.75
2023-04-26T17:14:39.078Z,35.40
2023-04-26T17:17:07.347Z,35.75
2023-04-26T17:19:35.476Z,31.25
2023-04-26T17:22:03.715Z,24.00
2023-04-26T17:24:32.054Z,26.00
2023-04-26T17:27:00.186Z,26.25
2023-04-26T17:29:28.377Z,29.25
2023-04-26T17:31:57.886Z,35.60
2023-04-26T17:34:26.723Z,48.60
2023-04-26T17:36:54.758Z,36.20
2023-04-26T17:39:22.974Z,44.00
2023-04-26T17:41:51.700Z,31.00
2023-04-26T17:44:20.428Z,18.50
2023-04-26T17:46:48.733Z,13.25
2023-04-26T17:49:18.273Z,13.25
2023-04-26T17:51:46.763Z,15.00
2023-04-26T17:54:15.353Z,13.50
2023-04-26T17:56:43.587Z,15.75
2023-04-26T17:59:11.937Z,11.50
2023-04-26T18:01:40.413Z,14.25
2023-04-26T18:04:09.058Z,15.00
2023-04-26T18:06:40.015Z,12.00
2023-04-26T18:09:08.870Z,12.50
2023-04-26T18:11:37.019Z,13.75
2023-04-26T18:14:05.371Z,13.25
2023-04-26T18:16:33.485Z,13.50
2023-04-26T18:19:01.660Z,12.00
2023-04-26T18:21:29.950Z,15.25
2023-04-26T18:24:00.746Z,9.50
2023-04-26T18:26:29.799Z,12.25
2023-04-26T18:28:58.541Z,12.00
2023-04-26T18:31:28.092Z,12.25
2023-04-26T18:33:56.287Z,12.00
2023-04-26T18:36:24.574Z,11.25
2023-04-26T18:38:52.609Z,11.00
2023-04-26T18:41:23.962Z,13.25
2023-04-26T18:43:53.660Z,9.75
2023-04-26T18:46:23.466Z,8.50
2023-04-26T18:48:51.706Z,11.75
2023-04-26T18:51:19.907Z,10.25
2023-04-26T18:53:48.047Z,10.75
2023-04-26T18:56:16.533Z,6.25
2023-04-26T18:58:46.202Z,11.75
2023-04-26T19:01:14.489Z,7.75
2023-04-26T19:03:42.853Z,7.00
2023-04-26T19:06:14.975Z,7.75
2023-04-26T19:08:43.426Z,8.50
2023-04-26T19:11:12.457Z,8.50
2023-04-26T19:13:41.551Z,8.25
2023-04-26T19:16:12.010Z,8.00
2023-04-26T19:18:42.032Z,10.25
2023-04-26T19:21:10.737Z,8.25
2023-04-26T19:23:38.864Z,7.75
2023-04-26T19:26:07.790Z,8.25
2023-04-26T19:28:36.005Z,5.00
2023-04-26T19:31:04.225Z,7.25
2023-04-26T19:33:33.922Z,7.00
2023-04-26T19:36:02.097Z,6.00
2023-04-26T19:38:30.169Z,6.00
2023-04-26T19:40:58.268Z,3.75
2023-04-26T19:43:26.369Z,2.00
2023-04-26T19:45:54.451Z,4.00
2023-04-26T19:48:23.369Z,5.00
2023-04-26T19:51:05.765Z,8.25
2023-04-26T19:53:35.926Z,7.00
2023-04-26T19:56:04.425Z,5.25
2023-04-26T19:58:33.312Z,6.00
2023-04-26T20:01:02.546Z,5.00
2023-04-26T20:06:02.536Z,5.00
2023-04-26T20:08:31.559Z,8.25
2023-04-26T20:11:03.591Z,9.75
2023-04-26T20:13:31.753Z,6.00
2023-04-26T20:15:59.987Z,6.25
2023-04-26T20:18:28.242Z,8.00
2023-04-26T20:20:57.656Z,6.25
2023-04-26T20:23:27.141Z,11.00
2023-04-26T20:25:55.495Z,8.75
2023-04-26T20:28:24.541Z,7.50
2023-04-26T20:30:53.101Z,5.00
2023-04-26T20:33:21.472Z,10.75
2023-04-26T20:35:49.585Z,6.00
2023-04-26T20:38:17.652Z,9.00
2023-04-26T20:40:49.329Z,9.00
2023-04-26T20:43:17.736Z,7.00
2023-04-26T20:45:45.922Z,9.25
2023-04-26T20:48:14.430Z,11.25
2023-04-26T20:50:42.688Z,11.25
2023-04-26T20:53:10.875Z,10.00
2023-04-26T20:55:39.288Z,11.75
2023-04-26T20:58:08.778Z,6.00
2023-04-26T21:00:42.954Z,8.50
2023-04-26T21:03:12.695Z,8.00
2023-04-26T21:05:41.000Z,10.50
2023-04-26T21:08:09.098Z,6.75
2023-04-26T21:10:37.494Z,8.75
2023-04-26T21:13:05.862Z,8.00
2023-04-26T21:15:35.663Z,9.75
2023-04-26T21:18:03.901Z,8.25
2023-04-26T21:20:32.120Z,14.50
2023-04-26T21:23:00.215Z,10.25
2023-04-26T21:25:28.312Z,11.25
2023-04-26T21:27:57.842Z,9.50
2023-04-26T21:30:25.920Z,11.50
2023-04-26T21:32:55.564Z,8.50
2023-04-26T21:35:24.158Z,12.50
2023-04-26T21:37:52.277Z,10.00
2023-04-26T21:40:20.371Z,12.00
2023-04-26T21:43:01.464Z,10.00
2023-04-26T21:45:32.441Z,14.00
2023-04-26T21:48:01.972Z,10.00
2023-04-26T21:50:30.094Z,14.75
2023-04-26T21:52:58.230Z,14.75
2023-04-26T21:55:27.083Z,15.00
2023-04-26T21:57:55.124Z,15.00
2023-04-26T22:00:23.472Z,12.00
2023-04-26T22:02:51.707Z,18.25
2023-04-26T22:05:21.359Z,14.50
2023-04-26T22:07:49.370Z,15.50
2023-04-26T22:10:17.722Z,16.75
2023-04-26T22:12:45.916Z,16.00
2023-04-26T22:15:13.958Z,16.50
2023-04-26T22:17:42.226Z,15.75
2023-04-26T22:20:10.875Z,22.00
2023-04-26T22:22:40.920Z,19.75
2023-04-26T22:25:09.328Z,20.75
2023-04-26T22:27:37.483Z,12.50
2023-04-26T22:30:16.783Z,14.50
2023-04-26T22:32:52.858Z,20.00
2023-04-26T22:35:21.216Z,17.75
2023-04-26T22:37:50.967Z,16.50
2023-04-26T22:40:19.317Z,14.00
2023-04-26T22:42:48.447Z,18.25
2023-04-26T22:45:16.706Z,15.50
2023-04-26T22:47:44.877Z,18.25
2023-04-26T22:50:13.158Z,15.00
2023-04-26T22:52:41.345Z,15.50
2023-04-26T22:55:11.356Z,17.00
2023-04-26T22:57:39.447Z,14.75
2023-04-26T23:00:10.164Z,16.75
2023-04-26T23:02:38.519Z,22.00
2023-04-26T23:05:09.814Z,17.00
2023-04-26T23:07:37.957Z,16.75
2023-04-26T23:10:06.814Z,20.25
2023-04-26T23:12:37.162Z,12.00
2023-04-26T23:15:06.133Z,20.00
2023-04-26T23:17:35.349Z,24.00
2023-04-26T23:20:11.686Z,25.00
2023-04-26T23:22:40.294Z,49.00
2023-04-26T23:25:09.248Z,59.80
2023-04-26T23:27:38.985Z,68.00
2023-04-26T23:30:08.065Z,72.40
2023-04-26T23:32:36.226Z,64.80
2023-04-26T23:35:04.655Z,58.00
2023-04-26T23:37:32.771Z,65.60
2023-04-26T23:40:00.885Z,73.20
2023-04-26T23:42:28.950Z,80.60
2023-04-26T23:44:58.560Z,94.20
2023-04-26T23:47:26.993Z,93.80
2023-04-26T23:49:55.131Z,94.40
2023-04-26T23:52:23.199Z,90.20
2023-04-26T23:54:51.625Z,83.60
2023-04-26T23:57:19.650Z,81.40
2023-04-26T23:59:47.692Z,89.00
